Time;durP1;ratioP1;P1;durP2;ratioP2;P2;SDS_P1;SDS_P2;PMS_P1;PMS_P2;Temp;Humidity;BMP_temperature;BMP_pressure;BME280_temperature;BME280_humidity;BME280_pressure;Samples;Min_cycle;Max_cycle;Signal;HPM_P1;HPM_P2
2021/01/26 00:01:30;;;;;;;13.43;9.60;;;;;;;1.10;96.06;100163.53;637577;222;32701;-78
2021/01/26 00:03:58;;;;;;;12.23;8.93;;;;;;;0.91;97.17;100176.55;653319;219;23679;-78
2021/01/26 00:06:26;;;;;;;13.50;8.80;;;;;;;0.95;97.48;100170.34;642040;223;24793;-79
2021/01/26 00:08:54;;;;;;;13.80;9.30;;;;;;;1.17;96.63;100173.36;649141;219;32914;-79
2021/01/26 00:11:22;;;;;;;11.90;8.93;;;;;;;0.94;96.80;100175.55;639733;222;23704;-79
2021/01/26 00:13:50;;;;;;;11.48;8.48;;;;;;;1.26;96.88;100177.58;638221;223;32729;-79
2021/01/26 00:16:18;;;;;;;13.20;8.33;;;;;;;1.28;96.59;100171.94;652229;218;23661;-78
2021/01/26 00:18:46;;;;;;;11.80;8.10;;;;;;;1.40;96.28;100176.34;640138;221;24897;-79
2021/01/26 00:21:14;;;;;;;8.80;6.57;;;;;;;1.41;95.96;100175.00;657906;218;27989;-79
2021/01/26 00:23:42;;;;;;;12.03;8.93;;;;;;;1.76;95.48;100170.38;652995;217;32595;-79
2021/01/26 00:26:10;;;;;;;11.55;9.30;;;;;;;2.16;93.47;100168.00;651207;218;43295;-78
2021/01/26 00:28:37;;;;;;;13.03;9.90;;;;;;;2.16;93.13;100159.48;641084;221;32472;-78
2021/01/26 00:31:05;;;;;;;12.10;8.40;;;;;;;1.64;94.02;100168.52;644516;222;23663;-78
2021/01/26 00:33:33;;;;;;;10.50;7.87;;;;;;;1.65;94.30;100177.03;651882;219;24755;-79
2021/01/26 00:36:01;;;;;;;11.67;8.73;;;;;;;1.61;95.03;100183.27;646127;220;24737;-78
2021/01/26 00:38:29;;;;;;;11.77;7.50;;;;;;;1.30;95.52;100183.74;644823;222;24812;-79
2021/01/26 00:40:57;;;;;;;12.70;8.90;;;;;;;1.39;95.91;100195.19;647358;218;24809;-79
2021/01/26 00:43:25;;;;;;;14.27;8.77;;;;;;;1.38;96.07;100198.66;629039;223;24885;-79
2021/01/26 00:45:53;;;;;;;11.93;8.83;;;;;;;1.17;97.02;100200.71;643920;222;24802;-79
2021/01/26 00:48:21;;;;;;;15.30;10.80;;;;;;;1.58;96.33;100197.08;629006;222;43481;-79
2021/01/26 00:50:49;;;;;;;13.27;9.80;;;;;;;0.98;97.02;100202.16;652260;219;23716;-79
2021/01/26 00:53:17;;;;;;;14.77;9.20;;;;;;;1.05;98.36;100207.79;653321;218;24845;-79
2021/01/26 00:55:45;;;;;;;15.38;11.10;;;;;;;1.16;97.38;100204.19;650190;219;32661;-78
2021/01/26 00:58:14;;;;;;;16.80;11.20;;;;;;;0.76;97.17;100206.83;650867;219;23643;-79
2021/01/26 01:00:42;;;;;;;16.30;11.50;;;;;;;0.87;96.63;100204.52;647213;218;32616;-78
2021/01/26 01:03:11;;;;;;;15.17;10.20;;;;;;;0.81;97.52;100208.67;652589;218;24752;-78
2021/01/26 01:05:39;;;;;;;15.38;11.33;;;;;;;0.81;96.45;100207.39;645520;219;32616;-77
2021/01/26 01:08:07;;;;;;;17.17;11.20;;;;;;;0.75;97.54;100211.58;650842;218;23639;-78
2021/01/26 01:10:36;;;;;;;17.60;11.75;;;;;;;0.81;97.07;100208.67;647146;218;32959;-79
2021/01/26 01:13:03;;;;;;;17.37;12.37;;;;;;;0.86;97.54;100213.11;649820;218;33131;-79
2021/01/26 01:15:32;;;;;;;18.17;11.70;;;;;;;0.75;97.33;100211.58;645274;218;23653;-77
2021/01/26 01:18:00;;;;;;;17.12;11.95;;;;;;;0.78;97.99;100212.69;646204;218;32789;-78
2021/01/26 01:20:28;;;;;;;18.40;11.90;;;;;;;0.75;98.31;100215.42;648453;218;23674;-79
2021/01/26 01:22:56;;;;;;;17.27;12.35;;;;;;;0.81;97.81;100214.61;635788;222;32833;-77
2021/01/26 01:25:24;;;;;;;20.15;13.60;;;;;;;0.99;97.07;100219.21;632546;223;33142;-77
2021/01/26 01:27:52;;;;;;;19.20;13.60;;;;;;;0.94;97.54;100212.67;646300;219;32682;-77
2021/01/26 01:30:21;;;;;;;25.23;11.70;;;;;;;0.97;98.06;100206.09;654339;218;23669;-78
2021/01/26 01:32:49;;;;;;;18.25;13.05;;;;;;;1.12;96.36;100197.11;653404;218;43262;-78
2021/01/26 01:35:17;;;;;;;22.33;11.53;;;;;;;1.02;96.84;100203.67;647279;218;23673;-78
2021/01/26 01:37:45;;;;;;;21.07;12.90;;;;;;;1.23;96.57;100188.00;650672;218;32863;-78
2021/01/26 01:40:14;;;;;;;19.60;13.57;;;;;;;1.30;96.13;100190.60;652102;218;32620;-78
2021/01/26 01:42:43;;;;;;;17.70;12.30;;;;;;;1.22;96.91;100189.73;641104;219;24797;-77
2021/01/26 01:45:12;;;;;;;16.80;10.50;;;;;;;1.07;97.01;100181.64;637163;223;24797;-78
2021/01/26 01:47:40;;;;;;;17.37;10.80;;;;;;;1.19;97.04;100184.34;655087;218;24783;-78
2021/01/26 01:50:09;;;;;;;17.07;10.80;;;;;;;1.01;97.47;100189.22;650201;218;25837;-78
2021/01/26 01:52:37;;;;;;;16.60;11.23;;;;;;;0.98;98.13;100179.13;644950;220;24772;-78
2021/01/26 01:55:08;;;;;;;20.57;11.40;;;;;;;0.97;97.99;100187.72;638813;222;24810;-78
2021/01/26 01:57:34;;;;;;;20.63;12.47;;;;;;;0.93;98.28;100181.12;655436;218;24753;-78
2021/01/26 02:00:04;;;;;;;17.03;11.50;;;;;;;0.98;98.63;100179.13;641282;222;26068;-79
2021/01/26 02:02:32;;;;;;;21.87;11.93;;;;;;;1.06;98.43;100188.50;655065;218;24774;-79
2021/01/26 02:05:00;;;;;;;17.07;10.70;;;;;;;0.88;98.77;100182.67;638737;222;24635;-78
2021/01/26 02:07:28;;;;;;;20.73;11.83;;;;;;;0.74;99.39;100202.25;652271;219;24777;-78
2021/01/26 02:09:56;;;;;;;19.80;12.03;;;;;;;0.67;99.86;100207.31;654673;219;24785;-78
2021/01/26 02:12:24;;;;;;;27.42;15.30;;;;;;;0.77;100.00;100203.36;645918;219;32875;-78
2021/01/26 02:14:52;;;;;;;24.50;13.00;;;;;;;0.65;100.00;100203.56;641116;222;23660;-77
2021/01/26 02:17:23;;;;;;;23.38;14.75;;;;;;;0.69;100.00;100201.66;644921;219;32677;-78
2021/01/26 02:20:13;;;;;;;22.77;13.27;;;;;;;0.62;100.00;100201.17;640633;223;23675;-78
2021/01/26 02:22:52;;;;;;;23.83;15.55;;;;;;;0.73;100.00;100209.10;641103;222;31916;-78
2021/01/26 02:26:03;;;;;;;24.13;13.30;;;;;;;0.63;100.00;100214.34;651650;219;23686;-77
2021/01/26 02:28:37;;;;;;;27.80;17.17;;;;;;;0.58;100.00;100217.61;627986;223;32973;-78
2021/01/26 02:31:15;;;;;;;26.30;16.60;;;;;;;0.62;100.00;100219.08;635817;222;32116;-77
2021/01/26 02:34:13;;;;;;;25.10;17.05;;;;;;;0.61;100.00;100220.45;635489;222;32638;-79
2021/01/26 02:36:54;;;;;;;22.03;13.83;;;;;;;0.52;100.00;100223.86;633206;222;23663;-78
2021/01/26 02:39:33;;;;;;;23.70;15.67;;;;;;;0.58;100.00;100229.94;633210;223;32770;-80
2021/01/26 02:42:10;;;;;;;18.90;12.60;;;;;;;0.54;100.00;100223.77;655258;217;24759;-77
2021/01/26 02:44:39;;;;;;;26.62;15.88;;;;;;;0.65;100.00;100234.72;642625;218;43360;-78
2021/01/26 02:47:08;;;;;;;21.70;13.97;;;;;;;0.61;100.00;100237.08;640601;221;23805;-78
2021/01/26 02:49:37;;;;;;;22.02;14.07;;;;;;;0.72;100.00;100230.94;622567;227;33044;-78
2021/01/26 02:52:05;;;;;;;22.10;12.73;;;;;;;0.71;100.00;100224.17;640590;223;23689;-78
2021/01/26 02:54:35;;;;;;;20.80;13.85;;;;;;;1.06;100.00;100229.92;647625;218;32610;-78
2021/01/26 02:57:07;;;;;;;17.87;12.07;;;;;;;0.97;100.00;100226.13;654560;218;23661;-78
2021/01/26 02:59:37;;;;;;;20.17;13.90;;;;;;;1.28;100.00;100221.89;643151;219;32737;-78
2021/01/26 03:02:06;;;;;;;20.23;13.80;;;;;;;1.13;100.00;100210.31;641967;222;23585;-79
2021/01/26 03:04:35;;;;;;;21.75;13.83;;;;;;;1.28;100.00;100230.86;635045;223;32813;-79
2021/01/26 03:07:03;;;;;;;23.43;13.43;;;;;;;1.14;100.00;100235.01;641904;223;23691;-79
2021/01/26 03:09:33;;;;;;;18.37;11.63;;;;;;;0.89;100.00;100241.09;643459;223;24786;-78
2021/01/26 03:12:01;;;;;;;23.22;15.10;;;;;;;0.79;100.00;100245.05;651507;219;43380;-78
2021/01/26 03:14:29;;;;;;;19.63;12.30;;;;;;;0.75;100.00;100258.92;638660;222;23684;-78
2021/01/26 03:16:59;;;;;;;24.25;14.70;;;;;;;0.85;100.00;100255.80;649127;219;32617;-77
2021/01/26 03:19:27;;;;;;;24.20;12.70;;;;;;;0.95;100.00;100242.48;652382;219;23662;-78
2021/01/26 03:21:55;;;;;;;22.17;14.05;;;;;;;1.23;100.00;100239.23;649804;219;32521;-78
2021/01/26 03:24:24;;;;;;;21.53;12.43;;;;;;;1.25;100.00;100241.25;649677;219;23665;-79
2021/01/26 03:26:52;;;;;;;22.22;14.07;;;;;;;1.39;100.00;100243.86;648100;219;32697;-78
2021/01/26 03:29:20;;;;;;;20.07;12.07;;;;;;;1.19;100.00;100244.98;652538;219;26834;-78
2021/01/26 03:31:48;;;;;;;21.73;13.80;;;;;;;1.67;100.00;100247.80;643596;219;32617;-78
2021/01/26 03:34:16;;;;;;;23.13;12.43;;;;;;;1.19;100.00;100249.66;653402;218;24733;-78
2021/01/26 03:36:44;;;;;;;20.43;10.97;;;;;;;1.09;100.00;100248.50;653943;218;24763;-78
2021/01/26 03:39:12;;;;;;;22.42;13.53;;;;;;;1.43;100.00;100253.87;629660;223;32759;-78
2021/01/26 03:41:40;;;;;;;20.83;12.20;;;;;;;1.11;100.00;100254.36;641343;223;23695;-78
2021/01/26 03:44:08;;;;;;;19.40;11.83;;;;;;;1.07;100.00;100261.02;654539;218;24830;-78
2021/01/26 03:46:41;;;;;;;22.90;13.53;;;;;;;1.18;100.00;100265.94;635838;222;32748;-78
2021/01/26 03:49:13;;;;;;;23.55;14.10;;;;;;;1.15;100.00;100269.95;634642;223;32710;-80
2021/01/26 03:51:45;;;;;;;21.17;12.10;;;;;;;1.09;100.00;100274.56;656088;217;23690;-78
2021/01/26 03:54:24;;;;;;;19.98;12.70;;;;;;;1.13;100.00;100285.86;635000;221;31984;-80
2021/01/26 03:57:07;;;;;;;16.83;10.83;;;;;;;1.08;100.00;100284.44;640590;221;23668;-78
2021/01/26 03:59:35;;;;;;;19.33;12.27;;;;;;;1.18;100.00;100274.07;634490;223;32777;-79
2021/01/26 04:02:04;;;;;;;19.03;10.53;;;;;;;1.21;100.00;100275.63;651988;218;24746;-78
2021/01/26 04:04:34;;;;;;;19.70;12.20;;;;;;;1.24;99.84;100265.22;648624;218;32610;-77
2021/01/26 04:07:05;;;;;;;17.63;10.03;;;;;;;1.22;99.73;100264.48;642830;222;24607;-77
2021/01/26 04:09:34;;;;;;;20.65;12.10;;;;;;;1.26;99.80;100270.62;650287;217;32715;-80
2021/01/26 04:12:04;;;;;;;15.43;9.13;;;;;;;1.24;99.49;100259.64;653225;219;23640;-79
2021/01/26 04:14:32;;;;;;;20.35;12.30;;;;;;;1.27;99.15;100265.04;636432;222;32337;-79
2021/01/26 04:17:00;;;;;;;18.47;11.57;;;;;;;1.21;99.64;100266.22;653814;217;23680;-79
2021/01/26 04:19:29;;;;;;;18.67;11.85;;;;;;;1.25;99.62;100279.67;648273;219;43505;-80
2021/01/26 04:21:58;;;;;;;22.70;12.25;;;;;;;1.29;99.23;100279.89;645461;217;32615;-79
2021/01/26 04:24:26;;;;;;;17.70;10.50;;;;;;;1.22;99.91;100279.39;639120;222;23864;-78
2021/01/26 04:26:54;;;;;;;21.05;12.37;;;;;;;1.25;99.80;100278.39;646294;218;32629;-79
2021/01/26 04:29:22;;;;;;;20.30;12.63;;;;;;;1.28;99.44;100283.37;648335;217;32619;-79
2021/01/26 04:31:51;;;;;;;21.97;12.30;;;;;;;1.22;99.96;100280.67;653116;219;23697;-79
2021/01/26 04:34:20;;;;;;;21.70;13.08;;;;;;;1.26;99.63;100283.88;634445;223;33512;-79
2021/01/26 04:36:48;;;;;;;19.17;12.33;;;;;;;1.32;99.98;100278.44;629042;222;32756;-79
2021/01/26 04:39:16;;;;;;;22.40;11.80;;;;;;;1.22;99.55;100284.97;638815;223;23713;-78
2021/01/26 04:41:47;;;;;;;21.37;11.50;;;;;;;1.28;99.63;100271.84;645163;219;32658;-77
2021/01/26 04:44:25;;;;;;;19.10;10.70;;;;;;;1.27;98.97;100270.16;647368;219;24714;-79
2021/01/26 04:46:58;;;;;;;17.40;10.00;;;;;;;1.29;98.81;100270.47;640031;222;31996;-79
2021/01/26 04:49:27;;;;;;;15.60;8.83;;;;;;;1.33;98.50;100277.52;645581;222;23683;-78
2021/01/26 04:51:57;;;;;;;16.25;10.65;;;;;;;1.33;98.61;100277.06;646108;217;32596;-77
2021/01/26 04:54:30;;;;;;;15.63;9.43;;;;;;;1.34;98.35;100283.02;640746;223;23892;-75
2021/01/26 04:57:01;;;;;;;18.30;10.10;;;;;;;1.38;98.53;100290.44;637632;223;32722;-76
2021/01/26 04:59:36;;;;;;;15.18;9.68;;;;;;;1.39;98.24;100298.49;648408;218;32655;-76
2021/01/26 05:02:13;;;;;;;19.97;9.60;;;;;;;1.36;98.24;100299.13;652458;218;23667;-76
2021/01/26 05:04:42;;;;;;;15.98;9.88;;;;;;;1.40;98.87;100307.00;636736;220;32757;-75
2021/01/26 05:07:09;;;;;;;14.30;9.37;;;;;;;1.40;97.93;100314.23;639893;221;23794;-76
2021/01/26 05:09:39;;;;;;;16.62;9.70;;;;;;;1.48;97.72;100302.30;648771;218;32580;-76
2021/01/26 05:12:07;;;;;;;14.13;7.83;;;;;;;1.45;97.74;100304.58;653756;218;26829;-76
2021/01/26 05:14:36;;;;;;;15.40;9.70;;;;;;;1.47;97.96;100297.63;635899;223;32997;-76
2021/01/26 05:17:05;;;;;;;19.87;9.90;;;;;;;1.48;97.63;100301.02;634161;223;32745;-76
2021/01/26 05:19:34;;;;;;;14.50;9.03;;;;;;;1.49;97.25;100297.53;641168;223;23673;-76
2021/01/26 05:22:03;;;;;;;14.60;9.23;;;;;;;1.51;97.74;100305.96;634843;223;32755;-76
2021/01/26 05:24:32;;;;;;;14.37;8.70;;;;;;;1.46;97.79;100306.69;647913;219;23639;-76
2021/01/26 05:27:00;;;;;;;18.33;7.93;;;;;;;1.44;97.98;100314.91;639853;223;24816;-76
2021/01/26 05:29:28;;;;;;;13.27;7.73;;;;;;;1.58;98.40;100312.87;648487;218;27941;-76
2021/01/26 05:31:57;;;;;;;14.23;9.05;;;;;;;1.62;97.41;100312.60;647507;219;32591;-75
2021/01/26 05:34:24;;;;;;;12.93;8.10;;;;;;;1.64;97.29;100306.11;651375;220;23744;-75
2021/01/26 05:36:52;;;;;;;14.65;8.90;;;;;;;1.66;97.08;100312.79;647869;219;32885;-76
2021/01/26 05:39:21;;;;;;;14.40;8.07;;;;;;;1.60;96.91;100322.58;636214;221;23595;-75
2021/01/26 05:41:49;;;;;;;12.50;7.23;;;;;;;1.62;96.44;100316.45;651110;218;24770;-76
2021/01/26 05:44:17;;;;;;;16.47;7.17;;;;;;;1.64;97.16;100327.44;632965;221;24798;-76
2021/01/26 05:46:45;;;;;;;13.93;7.78;;;;;;;1.67;97.06;100328.99;634620;223;33070;-76
2021/01/26 05:49:15;;;;;;;11.30;6.83;;;;;;;1.65;96.77;100327.80;654139;219;23650;-76
2021/01/26 05:51:42;;;;;;;11.70;7.20;;;;;;;1.70;96.29;100329.67;641811;223;24806;-75
2021/01/26 05:54:11;;;;;;;15.63;6.80;;;;;;;1.69;96.15;100327.17;641090;221;24933;-75
2021/01/26 05:56:46;;;;;;;11.33;7.57;;;;;;;1.73;95.93;100333.34;653532;218;35695;-74
2021/01/26 05:59:21;;;;;;;14.25;7.92;;;;;;;1.78;96.10;100333.89;653119;218;32813;-74
2021/01/26 06:01:48;;;;;;;11.20;7.43;;;;;;;1.72;96.10;100327.84;640859;223;23732;-75
2021/01/26 06:04:16;;;;;;;13.13;8.05;;;;;;;1.74;96.46;100340.57;632435;223;32887;-75
2021/01/26 06:06:51;;;;;;;11.77;7.70;;;;;;;1.75;95.98;100338.37;642387;223;23682;-74
2021/01/26 06:09:29;;;;;;;14.10;6.87;;;;;;;1.72;96.43;100341.94;640129;223;25235;-77
2021/01/26 06:12:06;;;;;;;8.90;6.00;;;;;;;1.76;95.97;100344.70;637199;223;24799;-75
2021/01/26 06:14:34;;;;;;;10.10;6.47;;;;;;;1.70;96.52;100348.08;654837;216;24743;-75
2021/01/26 06:17:06;;;;;;;12.80;7.15;;;;;;;1.73;96.77;100360.26;653322;217;32549;-75
2021/01/26 06:19:34;;;;;;;9.70;5.27;;;;;;;1.72;96.32;100361.17;651800;218;23911;-74
2021/01/26 06:22:01;;;;;;;12.87;7.83;;;;;;;1.73;96.44;100367.95;638524;222;27000;-77
2021/01/26 06:24:29;;;;;;;9.17;5.93;;;;;;;1.74;96.13;100363.64;653243;218;24926;-76
2021/01/26 06:27:10;;;;;;;13.28;8.18;;;;;;;1.77;96.42;100369.88;653840;218;32532;-76
2021/01/26 06:29:38;;;;;;;9.03;5.67;;;;;;;1.76;96.08;100379.31;649039;221;23624;-76
2021/01/26 06:32:07;;;;;;;7.53;4.97;;;;;;;1.75;96.09;100382.78;642877;223;25810;-77
2021/01/26 06:34:42;;;;;;;6.77;3.87;;;;;;;1.75;96.23;100384.06;636922;223;24832;-75
2021/01/26 06:37:33;;;;;;;10.90;5.93;;;;;;;1.73;96.80;100391.02;640476;223;25029;-77
2021/01/26 06:40:13;;;;;;;10.30;6.30;;;;;;;1.65;96.90;100387.22;641068;218;25020;-75
2021/01/26 06:42:47;;;;;;;10.38;6.42;;;;;;;1.72;96.50;100393.22;648849;217;32567;-75
2021/01/26 06:45:17;;;;;;;13.63;5.93;;;;;;;1.71;96.97;100402.27;646334;222;23711;-76
2021/01/26 06:47:56;;;;;;;14.40;6.50;;;;;;;1.69;96.88;100411.76;651868;217;24760;-77
2021/01/26 06:50:28;;;;;;;7.77;6.03;;;;;;;1.67;97.17;100422.55;653384;218;27930;-76
2021/01/26 06:52:59;;;;;;;10.03;6.67;;;;;;;1.70;97.09;100420.67;643555;223;24807;-76
2021/01/26 06:55:36;;;;;;;14.40;7.13;;;;;;;1.73;96.89;100425.62;646977;218;32567;-76
2021/01/26 06:58:15;;;;;;;15.43;6.30;;;;;;;1.73;97.71;100425.62;655931;218;27941;-76
2021/01/26 07:00:47;;;;;;;8.57;5.43;;;;;;;1.74;97.28;100424.72;652729;219;24802;-73
2021/01/26 07:03:25;;;;;;;11.63;6.50;;;;;;;1.89;96.88;100417.09;630671;222;32149;-75
2021/01/26 07:06:06;;;;;;;11.07;6.27;;;;;;;1.78;97.56;100424.09;655447;217;23645;-76
2021/01/26 07:08:47;;;;;;;13.70;6.83;;;;;;;1.84;97.39;100421.20;634963;223;32704;-76
2021/01/26 07:11:23;;;;;;;9.93;5.20;;;;;;;1.77;96.85;100430.95;635838;223;23678;-75
2021/01/26 07:13:52;;;;;;;11.43;5.80;;;;;;;1.78;97.01;100433.06;653586;218;28969;-76
2021/01/26 07:16:30;;;;;;;10.57;6.63;;;;;;;1.76;97.11;100438.73;658581;218;24779;-76
2021/01/26 07:19:25;;;;;;;11.45;6.35;;;;;;;1.88;96.67;100434.67;641806;218;32497;-75
2021/01/26 07:22:20;;;;;;;11.13;7.23;;;;;;;1.84;96.82;100437.88;645504;222;23613;-74
2021/01/26 07:24:48;;;;;;;11.07;4.87;;;;;;;1.86;96.35;100444.19;654545;217;24758;-76
2021/01/26 07:27:23;;;;;;;5.73;4.50;;;;;;;1.86;96.30;100436.50;638331;221;24793;-75
2021/01/26 07:29:55;;;;;;;7.60;4.73;;;;;;;1.96;95.90;100438.91;633597;222;43365;-75
2021/01/26 07:32:24;;;;;;;8.10;4.90;;;;;;;1.94;95.57;100433.86;642765;222;29275;-75
2021/01/26 07:34:53;;;;;;;7.97;4.70;;;;;;;1.94;95.40;100435.61;641974;223;24788;-75
2021/01/26 07:37:21;;;;;;;11.83;5.07;;;;;;;1.89;95.94;100452.53;642779;223;24809;-75
2021/01/26 07:39:51;;;;;;;6.77;5.17;;;;;;;1.92;95.53;100445.12;638871;223;24815;-74
2021/01/26 07:42:20;;;;;;;5.63;3.80;;;;;;;1.94;94.65;100450.53;644314;222;29138;-75
2021/01/26 07:44:47;;;;;;;7.80;4.20;;;;;;;2.00;94.82;100445.55;635341;223;32821;-75
2021/01/26 07:47:17;;;;;;;7.95;4.10;;;;;;;2.06;93.92;100443.91;643894;219;33254;-76
2021/01/26 07:49:46;;;;;;;9.80;3.87;;;;;;;2.07;94.43;100455.81;636258;222;27919;-75
2021/01/26 07:52:13;;;;;;;4.80;3.30;;;;;;;2.08;93.79;100449.77;643723;223;25100;-75
2021/01/26 07:54:43;;;;;;;4.07;3.20;;;;;;;2.07;93.25;100445.09;657542;218;25801;-75
2021/01/26 07:57:11;;;;;;;6.28;3.67;;;;;;;2.12;93.32;100459.43;635113;223;32683;-75
2021/01/26 07:59:39;;;;;;;5.13;2.90;;;;;;;2.13;92.79;100458.52;639622;223;23682;-75
2021/01/26 08:02:07;;;;;;;7.10;3.60;;;;;;;2.17;92.08;100458.25;644059;218;32535;-75
2021/01/26 08:04:37;;;;;;;7.23;3.07;;;;;;;2.19;92.29;100450.47;656714;218;23659;-75
2021/01/26 08:07:06;;;;;;;10.58;4.70;;;;;;;2.23;92.18;100458.34;642629;218;33078;-75
2021/01/26 08:09:36;;;;;;;7.50;4.62;;;;;;;2.17;92.13;100460.81;635942;223;32675;-75
2021/01/26 08:12:04;;;;;;;7.37;4.10;;;;;;;2.20;91.86;100467.51;647955;218;23653;-75
2021/01/26 08:14:33;;;;;;;7.47;3.02;;;;;;;2.25;91.27;100463.80;639807;219;32545;-76
2021/01/26 08:17:01;;;;;;;3.77;3.20;;;;;;;2.26;90.92;100477.45;649633;218;26837;-75
2021/01/26 08:19:29;;;;;;;4.97;2.40;;;;;;;2.29;91.33;100481.94;637523;222;24817;-76
2021/01/26 08:21:58;;;;;;;5.55;2.60;;;;;;;2.36;91.29;100483.23;647596;219;32574;-75
2021/01/26 08:24:32;;;;;;;6.27;3.10;;;;;;;2.27;91.36;100482.49;653017;219;23682;-76
2021/01/26 08:27:18;;;;;;;6.63;2.80;;;;;;;2.32;90.93;100495.05;658840;218;24751;-76
2021/01/26 08:29:53;;;;;;;10.93;2.40;;;;;;;2.32;90.97;100498.91;651416;219;25055;-76
2021/01/26 08:32:41;;;;;;;7.23;2.70;;;;;;;2.32;91.21;100497.16;650430;219;24752;-76
2021/01/26 08:35:09;;;;;;;4.57;2.57;;;;;;;2.32;90.71;100493.31;658186;218;26228;-76
2021/01/26 08:37:45;;;;;;;3.87;2.40;;;;;;;2.37;90.62;100507.98;649954;218;24999;-76
2021/01/26 08:40:13;;;;;;;4.90;2.10;;;;;;;2.34;90.63;100511.19;638660;221;24837;-75
2021/01/26 08:42:52;;;;;;;4.42;2.50;;;;;;;2.43;90.97;100509.86;646469;218;32562;-75
2021/01/26 08:45:26;;;;;;;7.67;2.47;;;;;;;2.58;89.92;100507.25;636657;221;32702;-75
2021/01/26 08:47:54;;;;;;;6.43;3.17;;;;;;;2.44;90.35;100510.23;639956;222;23711;-75
2021/01/26 08:50:26;;;;;;;5.30;2.15;;;;;;;2.54;90.20;100507.52;635461;222;32986;-75
2021/01/26 08:52:56;;;;;;;5.83;3.17;;;;;;;2.53;89.85;100507.95;641845;222;24902;-75
2021/01/26 08:55:33;;;;;;;4.90;3.37;;;;;;;2.56;89.95;100512.11;640790;223;24784;-76
2021/01/26 08:58:01;;;;;;;8.70;4.27;;;;;;;2.79;89.90;100507.75;654112;218;24802;-75
2021/01/26 09:00:37;;;;;;;7.35;3.60;;;;;;;2.94;89.43;100506.86;638566;223;32712;-75
2021/01/26 09:03:33;;;;;;;7.17;3.00;;;;;;;2.71;89.07;100513.80;639906;223;23665;-75
2021/01/26 09:06:04;;;;;;;6.10;2.30;;;;;;;2.52;88.84;100521.70;638750;223;24777;-75
2021/01/26 09:08:45;;;;;;;9.10;3.00;;;;;;;2.55;89.53;100527.97;640019;222;24657;-76
2021/01/26 09:11:14;;;;;;;4.93;2.43;;;;;;;2.55;89.33;100530.99;649765;221;26868;-75
2021/01/26 09:13:42;;;;;;;6.10;2.43;;;;;;;2.53;89.13;100534.08;643967;221;25216;-75
2021/01/26 09:16:13;;;;;;;7.15;2.80;;;;;;;2.71;88.96;100537.37;646032;220;32565;-76
2021/01/26 09:18:41;;;;;;;4.65;2.75;;;;;;;2.78;88.11;100539.94;636719;223;32741;-75
2021/01/26 09:21:09;;;;;;;5.58;2.40;;;;;;;2.70;88.33;100539.11;646069;218;32820;-76
2021/01/26 09:23:37;;;;;;;11.80;2.80;;;;;;;2.64;88.17;100540.27;650646;218;23617;-75
2021/01/26 09:26:11;;;;;;;9.03;2.80;;;;;;;2.76;88.19;100547.73;657148;218;24747;-76
2021/01/26 09:28:40;;;;;;;8.73;2.80;;;;;;;2.68;88.04;100545.63;653117;218;24767;-75
2021/01/26 09:31:08;;;;;;;6.93;2.60;;;;;;;2.78;87.71;100548.47;654045;218;24803;-75
2021/01/26 09:33:35;;;;;;;3.50;2.37;;;;;;;2.95;87.82;100552.18;650974;218;24832;-75
2021/01/26 09:36:09;;;;;;;5.20;2.53;;;;;;;2.79;87.68;100551.41;658023;218;24773;-76
2021/01/26 09:38:37;;;;;;;7.70;2.47;;;;;;;2.91;88.05;100552.45;648994;218;25058;-75
2021/01/26 09:41:05;;;;;;;8.50;3.10;;;;;;;3.06;87.40;100552.85;639675;223;24846;-75
2021/01/26 09:43:34;;;;;;;5.40;2.60;;;;;;;3.09;87.05;100557.81;642132;223;24832;-74
2021/01/26 09:46:02;;;;;;;12.03;3.00;;;;;;;3.00;87.48;100562.67;646381;222;27950;-76
2021/01/26 09:48:32;;;;;;;5.43;2.50;;;;;;;2.76;87.65;100563.60;657126;217;24747;-75
2021/01/26 09:51:09;;;;;;;6.00;3.60;;;;;;;2.84;87.83;100575.11;629372;221;24920;-75
2021/01/26 09:53:37;;;;;;;3.30;2.40;;;;;;;2.76;87.81;100582.41;650097;218;24795;-75
2021/01/26 09:56:06;;;;;;;3.93;2.70;;;;;;;2.97;87.76;100585.52;655857;218;24748;-76
2021/01/26 09:58:34;;;;;;;5.23;2.47;;;;;;;2.97;86.68;100586.80;640083;223;24890;-76
2021/01/26 10:01:03;;;;;;;8.20;2.50;;;;;;;2.89;86.97;100581.26;656405;218;30372;-76
2021/01/26 10:03:31;;;;;;;3.00;2.60;;;;;;;2.91;87.28;100585.39;655889;218;26876;-75
2021/01/26 10:06:00;;;;;;;6.80;2.70;;;;;;;2.84;86.93;100582.81;640089;222;24795;-75
2021/01/26 10:08:29;;;;;;;4.80;3.17;;;;;;;2.86;87.00;100589.97;652726;218;24772;-75
2021/01/26 10:10:57;;;;;;;7.25;3.22;;;;;;;2.95;85.38;100581.72;648083;218;32550;-75
2021/01/26 10:13:30;;;;;;;4.07;2.47;;;;;;;2.73;86.08;100589.46;628731;223;23781;-75
2021/01/26 10:15:57;;;;;;;6.87;2.50;;;;;;;2.79;86.60;100595.06;652113;218;24782;-74
2021/01/26 10:18:27;;;;;;;3.22;1.98;;;;;;;2.80;85.91;100589.02;645124;218;32832;-75
2021/01/26 10:20:57;;;;;;;7.90;2.83;;;;;;;2.83;85.61;100591.44;651402;218;23686;-75
2021/01/26 10:23:25;;;;;;;8.23;2.10;;;;;;;2.80;85.33;100595.89;650271;218;24744;-75
2021/01/26 10:25:53;;;;;;;5.07;2.07;;;;;;;2.85;86.05;100598.59;653776;218;24745;-75
2021/01/26 10:28:24;;;;;;;6.93;2.37;;;;;;;2.95;85.45;100595.84;648819;218;24741;-75
2021/01/26 10:30:50;;;;;;;4.30;2.20;;;;;;;2.88;84.78;100591.99;645090;222;28862;-75
2021/01/26 10:33:30;;;;;;;5.93;2.47;;;;;;;3.01;85.19;100609.28;644199;223;24797;-75
2021/01/26 10:36:16;;;;;;;2.23;2.00;;;;;;;3.17;84.93;100605.74;653286;218;25036;-75
2021/01/26 10:38:44;;;;;;;10.08;2.42;;;;;;;3.19;84.25;100606.94;649882;218;32519;-77
2021/01/26 10:41:12;;;;;;;3.73;2.20;;;;;;;3.18;84.61;100618.13;638118;223;23694;-75
2021/01/26 10:43:40;;;;;;;3.10;1.77;;;;;;;3.02;85.06;100616.90;659452;218;24763;-75
2021/01/26 10:46:11;;;;;;;4.80;2.20;;;;;;;3.09;85.02;100622.50;636595;222;25830;-75
2021/01/26 10:48:42;;;;;;;2.50;2.30;;;;;;;3.26;84.86;100617.25;657699;217;25072;-75
2021/01/26 10:51:10;;;;;;;3.80;2.60;;;;;;;3.23;83.88;100619.52;651865;218;24784;-75
2021/01/26 10:53:38;;;;;;;5.43;2.83;;;;;;;3.02;85.37;100632.31;638147;222;24787;-77
2021/01/26 10:56:07;;;;;;;4.17;2.80;;;;;;;3.08;85.15;100634.52;639604;223;24815;-74
2021/01/26 10:58:34;;;;;;;3.87;2.23;;;;;;;3.06;84.67;100629.11;640100;223;24792;-75
2021/01/26 11:01:03;;;;;;;3.93;2.20;;;;;;;2.98;83.78;100623.13;640889;222;24810;-74
2021/01/26 11:03:32;;;;;;;7.90;2.63;;;;;;;2.99;84.17;100617.08;655999;217;24790;-75
2021/01/26 11:06:00;;;;;;;8.37;2.70;;;;;;;3.23;83.36;100614.38;642208;221;24596;-75
2021/01/26 11:08:28;;;;;;;3.00;2.57;;;;;;;2.98;83.52;100611.12;656080;217;24746;-75
2021/01/26 11:10:56;;;;;;;4.90;2.27;;;;;;;3.04;83.41;100612.95;653654;218;24771;-75
2021/01/26 11:13:24;;;;;;;1.90;1.80;;;;;;;2.90;82.36;100622.27;657176;219;24757;-75
2021/01/26 11:15:52;;;;;;;2.93;2.23;;;;;;;2.92;83.47;100620.44;641221;222;24877;-75
2021/01/26 11:18:22;;;;;;;2.60;2.40;;;;;;;2.89;83.85;100627.03;650233;218;25971;-74
2021/01/26 11:20:50;;;;;;;6.90;2.57;;;;;;;2.96;83.87;100614.69;653731;218;24756;-76
2021/01/26 11:23:18;;;;;;;3.23;2.47;;;;;;;2.91;83.06;100620.52;652076;218;24760;-74
2021/01/26 11:25:46;;;;;;;7.77;2.50;;;;;;;2.82;83.10;100613.36;649111;221;24822;-74
2021/01/26 11:28:14;;;;;;;3.50;2.33;;;;;;;2.87;83.26;100615.20;641487;223;27957;-75
2021/01/26 11:30:42;;;;;;;6.03;2.80;;;;;;;2.91;83.29;100620.52;653518;218;24740;-74
2021/01/26 11:33:10;;;;;;;5.53;2.63;;;;;;;2.96;82.93;100624.51;649164;219;24781;-74
2021/01/26 11:35:38;;;;;;;5.90;2.87;;;;;;;2.98;82.93;100611.12;649965;218;24749;-74
2021/01/26 11:38:06;;;;;;;5.47;2.70;;;;;;;3.04;82.91;100620.20;653498;218;24757;-74
2021/01/26 11:40:34;;;;;;;6.97;3.27;;;;;;;3.16;83.12;100623.36;639219;222;26965;-75